sensor_id;sensor_type;location;lat;lon;timestamp;temperature;humidity
18103;DHT22;9178;51.120;6.192;2023-04-28T00:01:53;10.00;99.90
18103;DHT22;9178;51.120;6.192;2023-04-28T00:04:20;10.00;99.90
18103;DHT22;9178;51.120;6.192;2023-04-28T00:06:47;10.00;99.90
18103;DHT22;9178;51.120;6.192;2023-04-28T00:09:14;10.00;99.90
18103;DHT22;9178;51.120;6.192;2023-04-28T00:11:43;10.00;99.90
18103;DHT22;9178;51.120;6.192;2023-04-28T00:14:13;9.90;99.90
18103;DHT22;9178;51.120;6.192;2023-04-28T00:16:40;9.90;99.90
18103;DHT22;9178;51.120;6.192;2023-04-28T00:19:08;9.80;99.90
18103;DHT22;9178;51.120;6.192;2023-04-28T00:21:35;9.80;99.90
18103;DHT22;9178;51.120;6.192;2023-04-28T00:24:02;9.70;99.90
18103;DHT22;9178;51.120;6.192;2023-04-28T00:26:29;9.70;99.90
18103;DHT22;9178;51.120;6.192;2023-04-28T00:28:56;9.60;99.90
18103;DHT22;9178;51.120;6.192;2023-04-28T00:31:23;9.60;99.90
18103;DHT22;9178;51.120;6.192;2023-04-28T00:33:50;9.60;99.90
18103;DHT22;9178;51.120;6.192;2023-04-28T00:36:19;9.50;99.90
18103;DHT22;9178;51.120;6.192;2023-04-28T00:38:46;9.50;99.90
18103;DHT22;9178;51.120;6.192;2023-04-28T00:41:13;9.50;99.90
18103;DHT22;9178;51.120;6.192;2023-04-28T00:43:44;9.50;99.90
18103;DHT22;9178;51.120;6.192;2023-04-28T00:46:16;9.50;99.90
18103;DHT22;9178;51.120;6.192;2023-04-28T00:48:45;9.50;99.90
18103;DHT22;9178;51.120;6.192;2023-04-28T00:51:12;9.50;99.90
18103;DHT22;9178;51.120;6.192;2023-04-28T00:53:41;9.50;99.90
18103;DHT22;9178;51.120;6.192;2023-04-28T00:56:09;9.40;99.90
18103;DHT22;9178;51.120;6.192;2023-04-28T00:58:36;9.40;99.90
18103;DHT22;9178;51.120;6.192;2023-04-28T01:01:04;9.30;99.90
18103;DHT22;9178;51.120;6.192;2023-04-28T01:03:33;9.30;99.90
18103;DHT22;9178;51.120;6.192;2023-04-28T01:06:00;9.30;99.90
18103;DHT22;9178;51.120;6.192;2023-04-28T01:08:29;9.30;99.90
18103;DHT22;9178;51.120;6.192;2023-04-28T01:10:58;9.30;99.90
18103;DHT22;9178;51.120;6.192;2023-04-28T01:13:25;9.30;99.90
18103;DHT22;9178;51.120;6.192;2023-04-28T01:15:52;9.30;99.90
18103;DHT22;9178;51.120;6.192;2023-04-28T01:18:19;9.30;99.90
18103;DHT22;9178;51.120;6.192;2023-04-28T01:20:46;9.30;99.90
18103;DHT22;9178;51.120;6.192;2023-04-28T01:23:14;9.20;99.90
18103;DHT22;9178;51.120;6.192;2023-04-28T01:25:43;9.20;99.90
18103;DHT22;9178;51.120;6.192;2023-04-28T01:28:13;9.20;99.90
18103;DHT22;9178;51.120;6.192;2023-04-28T01:30:40;9.20;99.90
18103;DHT22;9178;51.120;6.192;2023-04-28T01:33:07;9.20;99.90
18103;DHT22;9178;51.120;6.192;2023-04-28T01:35:34;9.20;99.90
18103;DHT22;9178;51.120;6.192;2023-04-28T01:38:01;9.20;99.90
18103;DHT22;9178;51.120;6.192;2023-04-28T01:40:28;9.20;99.90
18103;DHT22;9178;51.120;6.192;2023-04-28T01:42:59;9.20;99.90
18103;DHT22;9178;51.120;6.192;2023-04-28T01:45:26;9.20;99.90
18103;DHT22;9178;51.120;6.192;2023-04-28T01:47:55;9.10;99.90
18103;DHT22;9178;51.120;6.192;2023-04-28T01:50:22;9.10;99.90
18103;DHT22;9178;51.120;6.192;2023-04-28T01:52:49;9.10;99.90
18103;DHT22;9178;51.120;6.192;2023-04-28T01:55:16;9.10;99.90
18103;DHT22;9178;51.120;6.192;2023-04-28T01:57:43;9.10;99.90
18103;DHT22;9178;51.120;6.192;2023-04-28T02:00:12;9.10;99.90
18103;DHT22;9178;51.120;6.192;2023-04-28T02:02:39;9.20;99.90
18103;DHT22;9178;51.120;6.192;2023-04-28T02:05:07;9.20;99.90
18103;DHT22;9178;51.120;6.192;2023-04-28T02:07:34;9.20;99.90
18103;DHT22;9178;51.120;6.192;2023-04-28T02:10:01;9.30;99.90
18103;DHT22;9178;51.120;6.192;2023-04-28T02:12:38;9.30;99.90
18103;DHT22;9178;51.120;6.192;2023-04-28T02:15:07;9.30;99.90
18103;DHT22;9178;51.120;6.192;2023-04-28T02:17:36;9.20;99.90
18103;DHT22;9178;51.120;6.192;2023-04-28T02:20:04;9.20;99.90
18103;DHT22;9178;51.120;6.192;2023-04-28T02:22:31;9.30;99.90
18103;DHT22;9178;51.120;6.192;2023-04-28T02:24:58;9.30;99.90
18103;DHT22;9178;51.120;6.192;2023-04-28T02:27:25;9.20;99.90
18103;DHT22;9178;51.120;6.192;2023-04-28T02:29:51;9.30;99.90
18103;DHT22;9178;51.120;6.192;2023-04-28T02:32:18;9.20;99.90
18103;DHT22;9178;51.120;6.192;2023-04-28T02:34:52;9.20;99.90
18103;DHT22;9178;51.120;6.192;2023-04-28T02:37:19;9.30;99.90
18103;DHT22;9178;51.120;6.192;2023-04-28T02:39:46;9.30;99.90
18103;DHT22;9178;51.120;6.192;2023-04-28T02:42:13;9.30;99.90
18103;DHT22;9178;51.120;6.192;2023-04-28T02:44:40;9.30;99.90
18103;DHT22;9178;51.120;6.192;2023-04-28T02:47:07;9.30;99.90
18103;DHT22;9178;51.120;6.192;2023-04-28T02:49:34;9.40;99.90
18103;DHT22;9178;51.120;6.192;2023-04-28T02:52:02;9.40;99.90
18103;DHT22;9178;51.120;6.192;2023-04-28T02:54:29;9.30;99.90
18103;DHT22;9178;51.120;6.192;2023-04-28T02:56:58;9.30;99.90
18103;DHT22;9178;51.120;6.192;2023-04-28T02:59:26;9.30;99.90
18103;DHT22;9178;51.120;6.192;2023-04-28T03:01:53;9.30;99.90
18103;DHT22;9178;51.120;6.192;2023-04-28T03:04:20;9.40;99.90
18103;DHT22;9178;51.120;6.192;2023-04-28T03:06:55;9.40;99.90
18103;DHT22;9178;51.120;6.192;2023-04-28T03:09:24;9.40;99.90
18103;DHT22;9178;51.120;6.192;2023-04-28T03:11:58;9.50;99.90
18103;DHT22;9178;51.120;6.192;2023-04-28T03:14:27;9.50;99.90
18103;DHT22;9178;51.120;6.192;2023-04-28T03:16:54;9.50;99.90
18103;DHT22;9178;51.120;6.192;2023-04-28T03:19:22;9.50;99.90
18103;DHT22;9178;51.120;6.192;2023-04-28T03:21:49;9.50;99.90
18103;DHT22;9178;51.120;6.192;2023-04-28T03:24:16;9.50;99.90
18103;DHT22;9178;51.120;6.192;2023-04-28T03:26:44;9.60;99.90
18103;DHT22;9178;51.120;6.192;2023-04-28T03:29:11;9.60;99.90
18103;DHT22;9178;51.120;6.192;2023-04-28T03:31:38;9.50;99.90
18103;DHT22;9178;51.120;6.192;2023-04-28T03:34:05;9.60;99.90
18103;DHT22;9178;51.120;6.192;2023-04-28T03:36:32;9.60;99.90
18103;DHT22;9178;51.120;6.192;2023-04-28T03:38:58;9.60;99.90
18103;DHT22;9178;51.120;6.192;2023-04-28T03:41:25;9.60;99.90
18103;DHT22;9178;51.120;6.192;2023-04-28T03:43:54;9.60;99.90
18103;DHT22;9178;51.120;6.192;2023-04-28T03:46:23;9.70;99.90
18103;DHT22;9178;51.120;6.192;2023-04-28T03:48:56;9.70;99.90
18103;DHT22;9178;51.120;6.192;2023-04-28T03:51:23;9.70;99.90
18103;DHT22;9178;51.120;6.192;2023-04-28T03:53:50;9.70;99.90
18103;DHT22;9178;51.120;6.192;2023-04-28T03:56:21;9.80;99.90
18103;DHT22;9178;51.120;6.192;2023-04-28T03:58:48;9.80;99.90
18103;DHT22;9178;51.120;6.192;2023-04-28T04:01:17;9.80;99.90
18103;DHT22;9178;51.120;6.192;2023-04-28T04:03:44;9.90;99.90
18103;DHT22;9178;51.120;6.192;2023-04-28T04:06:11;9.90;99.90
18103;DHT22;9178;51.120;6.192;2023-04-28T04:08:39;9.90;99.90
18103;DHT22;9178;51.120;6.192;2023-04-28T04:11:06;9.90;99.90
18103;DHT22;9178;51.120;6.192;2023-04-28T04:13:33;10.00;99.90
18103;DHT22;9178;51.120;6.192;2023-04-28T04:16:03;10.00;99.90
18103;DHT22;9178;51.120;6.192;2023-04-28T04:18:31;10.00;99.90
18103;DHT22;9178;51.120;6.192;2023-04-28T04:20:58;10.10;99.90
18103;DHT22;9178;51.120;6.192;2023-04-28T04:23:25;10.10;99.90
18103;DHT22;9178;51.120;6.192;2023-04-28T04:25:52;10.10;99.90
18103;DHT22;9178;51.120;6.192;2023-04-28T04:28:19;10.10;99.90
18103;DHT22;9178;51.120;6.192;2023-04-28T04:30:46;10.10;99.90
18103;DHT22;9178;51.120;6.192;2023-04-28T04:33:14;10.10;99.90
18103;DHT22;9178;51.120;6.192;2023-04-28T04:35:42;10.20;99.90
18103;DHT22;9178;51.120;6.192;2023-04-28T04:38:09;10.20;99.90
18103;DHT22;9178;51.120;6.192;2023-04-28T04:40:36;10.20;99.90
18103;DHT22;9178;51.120;6.192;2023-04-28T04:43:03;10.20;99.90
18103;DHT22;9178;51.120;6.192;2023-04-28T04:45:46;10.20;99.90
18103;DHT22;9178;51.120;6.192;2023-04-28T04:48:13;10.20;99.90
18103;DHT22;9178;51.120;6.192;2023-04-28T04:50:45;10.30;99.90
18103;DHT22;9178;51.120;6.192;2023-04-28T04:53:12;10.30;99.90
18103;DHT22;9178;51.120;6.192;2023-04-28T04:55:39;10.30;99.90
18103;DHT22;9178;51.120;6.192;2023-04-28T04:58:06;10.30;99.90
18103;DHT22;9178;51.120;6.192;2023-04-28T05:00:33;10.20;99.90
18103;DHT22;9178;51.120;6.192;2023-04-28T05:03:00;10.20;99.90
18103;DHT22;9178;51.120;6.192;2023-04-28T05:05:28;10.30;99.90
18103;DHT22;9178;51.120;6.192;2023-04-28T05:07:57;10.30;99.90
18103;DHT22;9178;51.120;6.192;2023-04-28T05:10:27;10.30;99.90
18103;DHT22;9178;51.120;6.192;2023-04-28T05:13:00;10.30;99.90
18103;DHT22;9178;51.120;6.192;2023-04-28T05:15:27;10.30;99.90
18103;DHT22;9178;51.120;6.192;2023-04-28T05:18:00;10.30;99.90
18103;DHT22;9178;51.120;6.192;2023-04-28T05:20:33;10.30;99.90
18103;DHT22;9178;51.120;6.192;2023-04-28T05:23:04;10.40;99.90
18103;DHT22;9178;51.120;6.192;2023-04-28T05:25:31;10.40;99.90
18103;DHT22;9178;51.120;6.192;2023-04-28T05:27:58;10.40;99.90
18103;DHT22;9178;51.120;6.192;2023-04-28T05:30:29;10.40;99.90
18103;DHT22;9178;51.120;6.192;2023-04-28T05:32:56;10.40;99.90
18103;DHT22;9178;51.120;6.192;2023-04-28T05:35:23;10.40;99.90
18103;DHT22;9178;51.120;6.192;2023-04-28T05:37:53;10.40;99.90
18103;DHT22;9178;51.120;6.192;2023-04-28T05:40:24;10.40;99.90
18103;DHT22;9178;51.120;6.192;2023-04-28T05:42:52;10.40;99.90
18103;DHT22;9178;51.120;6.192;2023-04-28T05:45:19;10.40;99.90
18103;DHT22;9178;51.120;6.192;2023-04-28T05:47:49;10.50;99.90
18103;DHT22;9178;51.120;6.192;2023-04-28T05:50:16;10.50;99.90
18103;DHT22;9178;51.120;6.192;2023-04-28T05:52:43;10.50;99.90
18103;DHT22;9178;51.120;6.192;2023-04-28T05:55:09;10.50;99.90
18103;DHT22;9178;51.120;6.192;2023-04-28T05:57:38;10.60;99.90
18103;DHT22;9178;51.120;6.192;2023-04-28T06:00:08;10.50;99.90
18103;DHT22;9178;51.120;6.192;2023-04-28T06:02:37;10.60;99.90
18103;DHT22;9178;51.120;6.192;2023-04-28T06:05:06;10.60;99.90
18103;DHT22;9178;51.120;6.192;2023-04-28T06:07:37;10.70;99.90
18103;DHT22;9178;51.120;6.192;2023-04-28T06:10:04;10.70;99.90
18103;DHT22;9178;51.120;6.192;2023-04-28T06:12:32;10.70;99.90
18103;DHT22;9178;51.120;6.192;2023-04-28T06:15:00;10.80;99.90
18103;DHT22;9178;51.120;6.192;2023-04-28T06:17:32;10.80;99.90
18103;DHT22;9178;51.120;6.192;2023-04-28T06:19:59;10.80;99.90
18103;DHT22;9178;51.120;6.192;2023-04-28T06:22:26;10.70;99.90
18103;DHT22;9178;51.120;6.192;2023-04-28T06:24:53;10.70;99.90
18103;DHT22;9178;51.120;6.192;2023-04-28T06:27:21;10.80;99.90
18103;DHT22;9178;51.120;6.192;2023-04-28T06:29:49;10.80;99.90
18103;DHT22;9178;51.120;6.192;2023-04-28T06:32:17;10.80;99.90
18103;DHT22;9178;51.120;6.192;2023-04-28T06:34:44;10.80;99.90
18103;DHT22;9178;51.120;6.192;2023-04-28T06:37:14;10.90;99.90
18103;DHT22;9178;51.120;6.192;2023-04-28T06:39:41;10.90;99.90
18103;DHT22;9178;51.120;6.192;2023-04-28T06:42:08;11.00;99.90
18103;DHT22;9178;51.120;6.192;2023-04-28T06:44:35;11.10;99.90
18103;DHT22;9178;51.120;6.192;2023-04-28T06:47:02;11.20;99.90
18103;DHT22;9178;51.120;6.192;2023-04-28T06:49:30;11.20;99.90
18103;DHT22;9178;51.120;6.192;2023-04-28T06:52:06;11.30;99.90
18103;DHT22;9178;51.120;6.192;2023-04-28T06:54:33;11.40;99.90
18103;DHT22;9178;51.120;6.192;2023-04-28T06:57:16;11.50;99.90
18103;DHT22;9178;51.120;6.192;2023-04-28T06:59:51;11.60;99.90
18103;DHT22;9178;51.120;6.192;2023-04-28T07:02:19;11.80;99.90
18103;DHT22;9178;51.120;6.192;2023-04-28T07:04:47;11.80;99.90
18103;DHT22;9178;51.120;6.192;2023-04-28T07:07:14;11.80;99.90
18103;DHT22;9178;51.120;6.192;2023-04-28T07:09:41;11.80;99.90
18103;DHT22;9178;51.120;6.192;2023-04-28T07:12:10;11.90;99.90
18103;DHT22;9178;51.120;6.192;2023-04-28T07:14:38;11.90;99.90
18103;DHT22;9178;51.120;6.192;2023-04-28T07:17:05;11.90;99.90
18103;DHT22;9178;51.120;6.192;2023-04-28T07:19:43;11.90;99.90
18103;DHT22;9178;51.120;6.192;2023-04-28T07:22:15;11.80;99.90
18103;DHT22;9178;51.120;6.192;2023-04-28T07:24:42;11.90;99.90
18103;DHT22;9178;51.120;6.192;2023-04-28T07:27:11;11.90;99.90
18103;DHT22;9178;51.120;6.192;2023-04-28T07:29:38;12.00;99.90
18103;DHT22;9178;51.120;6.192;2023-04-28T07:32:05;12.00;99.90
18103;DHT22;9178;51.120;6.192;2023-04-28T07:34:35;12.10;99.90
18103;DHT22;9178;51.120;6.192;2023-04-28T07:37:08;12.30;99.90
18103;DHT22;9178;51.120;6.192;2023-04-28T07:39:38;12.40;99.90
18103;DHT22;9178;51.120;6.192;2023-04-28T07:42:06;12.50;99.90
18103;DHT22;9178;51.120;6.192;2023-04-28T07:44:33;12.70;99.90
18103;DHT22;9178;51.120;6.192;2023-04-28T07:47:01;12.90;99.90
18103;DHT22;9178;51.120;6.192;2023-04-28T07:49:35;13.10;99.90
18103;DHT22;9178;51.120;6.192;2023-04-28T07:52:07;13.20;99.90
18103;DHT22;9178;51.120;6.192;2023-04-28T07:54:37;13.20;99.90
18103;DHT22;9178;51.120;6.192;2023-04-28T07:57:07;13.30;99.90
18103;DHT22;9178;51.120;6.192;2023-04-28T07:59:38;13.30;99.90
18103;DHT22;9178;51.120;6.192;2023-04-28T08:02:07;13.50;99.90
18103;DHT22;9178;51.120;6.192;2023-04-28T08:04:37;13.80;99.90
18103;DHT22;9178;51.120;6.192;2023-04-28T08:07:04;13.90;99.90
18103;DHT22;9178;51.120;6.192;2023-04-28T08:09:34;14.10;99.90
18103;DHT22;9178;51.120;6.192;2023-04-28T08:12:03;14.20;99.90
18103;DHT22;9178;51.120;6.192;2023-04-28T08:14:30;14.20;99.90
18103;DHT22;9178;51.120;6.192;2023-04-28T08:16:57;14.10;99.90
18103;DHT22;9178;51.120;6.192;2023-04-28T08:19:25;14.00;99.90
18103;DHT22;9178;51.120;6.192;2023-04-28T08:21:52;14.00;99.90
18103;DHT22;9178;51.120;6.192;2023-04-28T08:24:19;14.00;99.90
18103;DHT22;9178;51.120;6.192;2023-04-28T08:26:47;13.90;99.90
18103;DHT22;9178;51.120;6.192;2023-04-28T08:29:16;14.00;99.90
18103;DHT22;9178;51.120;6.192;2023-04-28T08:31:43;13.90;99.90
18103;DHT22;9178;51.120;6.192;2023-04-28T08:34:10;13.90;99.90
18103;DHT22;9178;51.120;6.192;2023-04-28T08:36:37;13.90;99.90
18103;DHT22;9178;51.120;6.192;2023-04-28T08:39:04;13.90;99.90
18103;DHT22;9178;51.120;6.192;2023-04-28T08:41:37;14.00;99.90
18103;DHT22;9178;51.120;6.192;2023-04-28T08:44:07;14.00;99.90
18103;DHT22;9178;51.120;6.192;2023-04-28T08:46:38;14.00;99.90
18103;DHT22;9178;51.120;6.192;2023-04-28T08:49:06;14.00;99.90
18103;DHT22;9178;51.120;6.192;2023-04-28T08:51:45;14.00;99.90
18103;DHT22;9178;51.120;6.192;2023-04-28T08:54:14;14.00;99.90
18103;DHT22;9178;51.120;6.192;2023-04-28T08:56:42;14.00;99.90
18103;DHT22;9178;51.120;6.192;2023-04-28T08:59:11;14.00;99.90
18103;DHT22;9178;51.120;6.192;2023-04-28T09:01:39;14.00;99.90
18103;DHT22;9178;51.120;6.192;2023-04-28T09:04:06;14.00;99.90
18103;DHT22;9178;51.120;6.192;2023-04-28T09:06:36;14.00;99.90
18103;DHT22;9178;51.120;6.192;2023-04-28T09:09:20;14.00;99.90
18103;DHT22;9178;51.120;6.192;2023-04-28T09:11:54;14.10;99.90
18103;DHT22;9178;51.120;6.192;2023-04-28T09:14:28;14.10;99.90
18103;DHT22;9178;51.120;6.192;2023-04-28T09:16:56;14.10;99.90
18103;DHT22;9178;51.120;6.192;2023-04-28T09:19:23;14.20;99.90
18103;DHT22;9178;51.120;6.192;2023-04-28T09:21:52;14.20;99.90
18103;DHT22;9178;51.120;6.192;2023-04-28T09:24:26;14.30;99.90
18103;DHT22;9178;51.120;6.192;2023-04-28T09:26:53;14.30;99.90
18103;DHT22;9178;51.120;6.192;2023-04-28T09:29:20;14.30;99.90
18103;DHT22;9178;51.120;6.192;2023-04-28T09:31:47;14.30;99.90
18103;DHT22;9178;51.120;6.192;2023-04-28T09:34:16;14.40;99.90
18103;DHT22;9178;51.120;6.192;2023-04-28T09:36:43;14.40;99.90
18103;DHT22;9178;51.120;6.192;2023-04-28T09:39:12;14.50;99.90
18103;DHT22;9178;51.120;6.192;2023-04-28T09:41:43;14.60;99.90
18103;DHT22;9178;51.120;6.192;2023-04-28T09:44:15;14.60;99.90
18103;DHT22;9178;51.120;6.192;2023-04-28T09:46:44;14.50;99.90
18103;DHT22;9178;51.120;6.192;2023-04-28T09:49:11;14.50;99.90
18103;DHT22;9178;51.120;6.192;2023-04-28T09:51:40;14.50;99.90
18103;DHT22;9178;51.120;6.192;2023-04-28T09:54:07;14.50;99.90
18103;DHT22;9178;51.120;6.192;2023-04-28T09:56:35;14.60;99.90
18103;DHT22;9178;51.120;6.192;2023-04-28T09:59:05;14.50;99.90
18103;DHT22;9178;51.120;6.192;2023-04-28T10:01:36;14.60;99.90
18103;DHT22;9178;51.120;6.192;2023-04-28T10:04:04;14.70;99.90
18103;DHT22;9178;51.120;6.192;2023-04-28T10:06:33;14.80;99.90
18103;DHT22;9178;51.120;6.192;2023-04-28T10:09:02;14.90;99.90
18103;DHT22;9178;51.120;6.192;2023-04-28T10:11:32;14.90;99.90
18103;DHT22;9178;51.120;6.192;2023-04-28T10:13:59;15.10;99.90
18103;DHT22;9178;51.120;6.192;2023-04-28T10:16:30;15.30;99.90
18103;DHT22;9178;51.120;6.192;2023-04-28T10:18:57;15.60;99.90
18103;DHT22;9178;51.120;6.192;2023-04-28T10:21:26;15.90;99.90
18103;DHT22;9178;51.120;6.192;2023-04-28T10:24:13;16.00;99.90
18103;DHT22;9178;51.120;6.192;2023-04-28T10:27:05;16.00;99.90
18103;DHT22;9178;51.120;6.192;2023-04-28T10:29:33;15.90;99.90
18103;DHT22;9178;51.120;6.192;2023-04-28T10:32:20;16.00;99.90
18103;DHT22;9178;51.120;6.192;2023-04-28T10:34:47;16.00;99.90
18103;DHT22;9178;51.120;6.192;2023-04-28T10:37:15;15.90;99.90
18103;DHT22;9178;51.120;6.192;2023-04-28T10:43:04;15.90;99.90
18103;DHT22;9178;51.120;6.192;2023-04-28T10:45:59;16.00;99.90
18103;DHT22;9178;51.120;6.192;2023-04-28T10:48:53;16.20;99.90
18103;DHT22;9178;51.120;6.192;2023-04-28T10:51:28;16.40;99.90
18103;DHT22;9178;51.120;6.192;2023-04-28T10:54:16;16.50;99.90
18103;DHT22;9178;51.120;6.192;2023-04-28T10:57:23;16.80;99.90
18103;DHT22;9178;51.120;6.192;2023-04-28T11:00:27;17.10;99.90
18103;DHT22;9178;51.120;6.192;2023-04-28T11:02:57;17.50;99.90
18103;DHT22;9178;51.120;6.192;2023-04-28T11:05:25;17.70;99.90
18103;DHT22;9178;51.120;6.192;2023-04-28T11:11:14;17.90;99.90
18103;DHT22;9178;51.120;6.192;2023-04-28T11:13:41;17.90;99.90
18103;DHT22;9178;51.120;6.192;2023-04-28T11:16:13;17.80;99.90
18103;DHT22;9178;51.120;6.192;2023-04-28T11:18:49;17.80;99.90
18103;DHT22;9178;51.120;6.192;2023-04-28T11:21:17;17.70;99.90
18103;DHT22;9178;51.120;6.192;2023-04-28T11:23:47;17.60;99.90
18103;DHT22;9178;51.120;6.192;2023-04-28T11:26:14;17.60;99.90
18103;DHT22;9178;51.120;6.192;2023-04-28T11:28:47;17.70;99.90
18103;DHT22;9178;51.120;6.192;2023-04-28T11:31:17;17.70;99.90
18103;DHT22;9178;51.120;6.192;2023-04-28T11:33:50;17.80;99.90
18103;DHT22;9178;51.120;6.192;2023-04-28T11:36:37;17.90;99.90
18103;DHT22;9178;51.120;6.192;2023-04-28T11:39:04;18.10;99.90
18103;DHT22;9178;51.120;6.192;2023-04-28T11:41:32;18.50;99.90
18103;DHT22;9178;51.120;6.192;2023-04-28T11:43:59;18.70;99.90
18103;DHT22;9178;51.120;6.192;2023-04-28T11:46:28;18.60;99.90
18103;DHT22;9178;51.120;6.192;2023-04-28T11:49:02;18.70;99.90
18103;DHT22;9178;51.120;6.192;2023-04-28T11:51:34;19.00;99.90
18103;DHT22;9178;51.120;6.192;2023-04-28T11:54:04;19.70;99.90
18103;DHT22;9178;51.120;6.192;2023-04-28T11:56:37;20.10;99.90
18103;DHT22;9178;51.120;6.192;2023-04-28T11:59:07;20.30;99.90
18103;DHT22;9178;51.120;6.192;2023-04-28T12:01:44;20.20;99.90
18103;DHT22;9178;51.120;6.192;2023-04-28T12:04:11;20.30;99.90
18103;DHT22;9178;51.120;6.192;2023-04-28T12:06:39;20.30;99.90
18103;DHT22;9178;51.120;6.192;2023-04-28T12:09:16;20.50;99.90
18103;DHT22;9178;51.120;6.192;2023-04-28T12:11:55;20.70;99.90
18103;DHT22;9178;51.120;6.192;2023-04-28T12:14:23;21.00;99.90
18103;DHT22;9178;51.120;6.192;2023-04-28T12:16:52;21.10;99.90
18103;DHT22;9178;51.120;6.192;2023-04-28T12:19:19;21.40;99.90
18103;DHT22;9178;51.120;6.192;2023-04-28T12:22:00;21.30;99.90
18103;DHT22;9178;51.120;6.192;2023-04-28T12:24:27;21.10;99.90
18103;DHT22;9178;51.120;6.192;2023-04-28T12:27:13;21.10;99.90
18103;DHT22;9178;51.120;6.192;2023-04-28T12:29:42;21.30;99.90
18103;DHT22;9178;51.120;6.192;2023-04-28T12:32:12;21.30;99.90
18103;DHT22;9178;51.120;6.192;2023-04-28T12:34:41;21.40;99.90
18103;DHT22;9178;51.120;6.192;2023-04-28T12:37:08;21.30;99.90
18103;DHT22;9178;51.120;6.192;2023-04-28T12:39:39;21.30;99.90
18103;DHT22;9178;51.120;6.192;2023-04-28T12:42:06;21.20;99.90
18103;DHT22;9178;51.120;6.192;2023-04-28T12:44:34;21.20;99.90
18103;DHT22;9178;51.120;6.192;2023-04-28T12:47:02;21.10;99.90
18103;DHT22;9178;51.120;6.192;2023-04-28T12:49:31;21.00;99.90
18103;DHT22;9178;51.120;6.192;2023-04-28T12:51:58;21.20;99.90
18103;DHT22;9178;51.120;6.192;2023-04-28T12:54:25;21.00;99.90
18103;DHT22;9178;51.120;6.192;2023-04-28T12:56:52;21.00;99.90
18103;DHT22;9178;51.120;6.192;2023-04-28T12:59:20;20.90;99.90
18103;DHT22;9178;51.120;6.192;2023-04-28T13:01:47;20.80;99.90
18103;DHT22;9178;51.120;6.192;2023-04-28T13:04:15;20.70;99.90
18103;DHT22;9178;51.120;6.192;2023-04-28T13:06:53;20.60;99.90
18103;DHT22;9178;51.120;6.192;2023-04-28T13:09:21;20.60;99.90
18103;DHT22;9178;51.120;6.192;2023-04-28T13:11:48;20.70;99.90
18103;DHT22;9178;51.120;6.192;2023-04-28T13:14:15;20.90;99.90
18103;DHT22;9178;51.120;6.192;2023-04-28T13:16:42;21.20;99.90
18103;DHT22;9178;51.120;6.192;2023-04-28T13:19:09;21.20;99.90
18103;DHT22;9178;51.120;6.192;2023-04-28T13:21:38;21.00;99.90
18103;DHT22;9178;51.120;6.192;2023-04-28T13:24:08;21.00;99.90
18103;DHT22;9178;51.120;6.192;2023-04-28T13:26:35;21.20;99.90
18103;DHT22;9178;51.120;6.192;2023-04-28T13:29:03;21.10;99.90
18103;DHT22;9178;51.120;6.192;2023-04-28T13:31:33;21.00;99.90
18103;DHT22;9178;51.120;6.192;2023-04-28T13:34:00;20.80;99.90
18103;DHT22;9178;51.120;6.192;2023-04-28T13:36:28;20.50;99.90
18103;DHT22;9178;51.120;6.192;2023-04-28T13:38:56;20.60;99.90
18103;DHT22;9178;51.120;6.192;2023-04-28T13:41:26;20.60;99.90
18103;DHT22;9178;51.120;6.192;2023-04-28T13:43:53;20.60;99.90
18103;DHT22;9178;51.120;6.192;2023-04-28T13:46:21;20.70;99.90
18103;DHT22;9178;51.120;6.192;2023-04-28T13:48:48;20.80;99.90
18103;DHT22;9178;51.120;6.192;2023-04-28T13:51:15;20.90;99.90
18103;DHT22;9178;51.120;6.192;2023-04-28T13:53:42;20.90;99.90
18103;DHT22;9178;51.120;6.192;2023-04-28T13:56:09;20.90;99.90
18103;DHT22;9178;51.120;6.192;2023-04-28T13:58:38;20.90;99.90
18103;DHT22;9178;51.120;6.192;2023-04-28T14:01:05;20.90;99.90
18103;DHT22;9178;51.120;6.192;2023-04-28T14:03:32;21.00;99.90
18103;DHT22;9178;51.120;6.192;2023-04-28T14:06:03;21.20;99.90
18103;DHT22;9178;51.120;6.192;2023-04-28T14:08:30;21.20;99.90
18103;DHT22;9178;51.120;6.192;2023-04-28T14:11:00;21.20;99.90
18103;DHT22;9178;51.120;6.192;2023-04-28T14:13:27;21.20;99.90
18103;DHT22;9178;51.120;6.192;2023-04-28T14:15:55;21.10;99.90
18103;DHT22;9178;51.120;6.192;2023-04-28T14:18:23;20.90;99.90
18103;DHT22;9178;51.120;6.192;2023-04-28T14:20:50;20.80;99.90
18103;DHT22;9178;51.120;6.192;2023-04-28T14:23:18;20.80;99.90
18103;DHT22;9178;51.120;6.192;2023-04-28T14:25:46;20.60;99.90
18103;DHT22;9178;51.120;6.192;2023-04-28T14:28:13;20.50;99.90
18103;DHT22;9178;51.120;6.192;2023-04-28T14:30:40;20.30;99.90
18103;DHT22;9178;51.120;6.192;2023-04-28T14:33:08;20.20;99.90
18103;DHT22;9178;51.120;6.192;2023-04-28T14:35:35;20.00;99.90
18103;DHT22;9178;51.120;6.192;2023-04-28T14:38:02;19.90;99.90
18103;DHT22;9178;51.120;6.192;2023-04-28T14:40:30;19.90;99.90
18103;DHT22;9178;51.120;6.192;2023-04-28T14:42:58;19.90;99.90
18103;DHT22;9178;51.120;6.192;2023-04-28T14:45:27;20.00;99.90
18103;DHT22;9178;51.120;6.192;2023-04-28T14:47:58;20.00;99.90
18103;DHT22;9178;51.120;6.192;2023-04-28T14:50:26;20.30;99.90
18103;DHT22;9178;51.120;6.192;2023-04-28T14:52:53;20.40;99.90
18103;DHT22;9178;51.120;6.192;2023-04-28T14:55:20;20.40;99.90
18103;DHT22;9178;51.120;6.192;2023-04-28T14:57:47;19.90;99.90
18103;DHT22;9178;51.120;6.192;2023-04-28T15:00:16;19.20;99.90
18103;DHT22;9178;51.120;6.192;2023-04-28T15:02:43;19.10;99.90
18103;DHT22;9178;51.120;6.192;2023-04-28T15:05:10;19.00;99.90
18103;DHT22;9178;51.120;6.192;2023-04-28T15:07:39;18.80;99.90
18103;DHT22;9178;51.120;6.192;2023-04-28T15:10:07;18.70;99.90
18103;DHT22;9178;51.120;6.192;2023-04-28T15:12:36;18.60;99.90
18103;DHT22;9178;51.120;6.192;2023-04-28T15:15:04;18.70;99.90
18103;DHT22;9178;51.120;6.192;2023-04-28T15:17:31;18.60;99.90
18103;DHT22;9178;51.120;6.192;2023-04-28T15:19:58;18.40;99.90
18103;DHT22;9178;51.120;6.192;2023-04-28T15:22:25;18.10;99.90
18103;DHT22;9178;51.120;6.192;2023-04-28T15:24:54;18.00;99.90
18103;DHT22;9178;51.120;6.192;2023-04-28T15:27:21;18.10;99.90
18103;DHT22;9178;51.120;6.192;2023-04-28T15:29:48;18.00;99.90
18103;DHT22;9178;51.120;6.192;2023-04-28T15:32:16;17.90;99.90
18103;DHT22;9178;51.120;6.192;2023-04-28T15:34:43;17.90;99.90
18103;DHT22;9178;51.120;6.192;2023-04-28T15:37:37;17.80;99.90
18103;DHT22;9178;51.120;6.192;2023-04-28T15:40:07;17.80;99.90
18103;DHT22;9178;51.120;6.192;2023-04-28T15:42:35;17.70;99.90
18103;DHT22;9178;51.120;6.192;2023-04-28T15:45:03;17.60;99.90
18103;DHT22;9178;51.120;6.192;2023-04-28T15:47:31;17.60;99.90
18103;DHT22;9178;51.120;6.192;2023-04-28T15:49:58;17.40;99.90
18103;DHT22;9178;51.120;6.192;2023-04-28T15:52:25;17.30;99.90
18103;DHT22;9178;51.120;6.192;2023-04-28T15:54:53;17.30;99.90
18103;DHT22;9178;51.120;6.192;2023-04-28T15:57:29;17.30;99.90
18103;DHT22;9178;51.120;6.192;2023-04-28T15:59:59;17.30;99.90
18103;DHT22;9178;51.120;6.192;2023-04-28T16:02:26;17.30;99.90
18103;DHT22;9178;51.120;6.192;2023-04-28T16:04:53;17.20;99.90
18103;DHT22;9178;51.120;6.192;2023-04-28T16:07:20;17.10;99.90
18103;DHT22;9178;51.120;6.192;2023-04-28T16:09:47;17.10;99.90